Comstock Park, Michigan
Current Conditions -  °F | °C
As of 9:53 PM on Monday 22 Dec 2014 (Local Time) from KGRR Reporting Station
Light Rain Light Rain  
Wind Chill: 25°   Ceiling: 3600
Heat Index: 34°   Visibility: 2.5mi
Dew Point: 32°   Wind: 14mph
Humidity: 92%   Direction: 90°E
Pressure: 29.81"   Gusts: NA
Location:  43.03°N, 85.67°W
Report Text: KGRR 230253Z 09012KT 2 1/2SM -RA BR SCT007 OVC036 01/00 A2981 RMK AO2 SLP102 P0006 60011 T00110000 58011
Loading
Personal Weather Stations






























Interactive Weather Map New forecast layout! Learn more

10-Day Weather Forecast

Advertisements
Track Severe Weather on mobile